sensor_id;sensor_type;location;lat;lon;timestamp;P1;durP1;ratioP1;P2;durP2;ratioP2
20609;SDS011;10463;52.378;9.688;2023-04-29T00:01:25;3.33;;;2.73;;
20609;SDS011;10463;52.378;9.688;2023-04-29T00:04:10;3.43;;;2.90;;
20609;SDS011;10463;52.378;9.688;2023-04-29T00:06:54;2.83;;;2.50;;
20609;SDS011;10463;52.378;9.688;2023-04-29T00:09:41;3.00;;;2.50;;
20609;SDS011;10463;52.378;9.688;2023-04-29T00:12:26;3.37;;;2.87;;
20609;SDS011;10463;52.378;9.688;2023-04-29T00:15:13;3.97;;;3.10;;
20609;SDS011;10463;52.378;9.688;2023-04-29T00:17:58;3.27;;;2.97;;
20609;SDS011;10463;52.378;9.688;2023-04-29T00:20:43;3.73;;;3.23;;
20609;SDS011;10463;52.378;9.688;2023-04-29T00:23:27;3.23;;;2.90;;
20609;SDS011;10463;52.378;9.688;2023-04-29T00:26:13;3.07;;;2.70;;
20609;SDS011;10463;52.378;9.688;2023-04-29T00:29:03;3.27;;;2.93;;
20609;SDS011;10463;52.378;9.688;2023-04-29T00:31:48;3.07;;;2.77;;
20609;SDS011;10463;52.378;9.688;2023-04-29T00:34:33;3.10;;;2.60;;
20609;SDS011;10463;52.378;9.688;2023-04-29T00:37:18;3.10;;;2.80;;
20609;SDS011;10463;52.378;9.688;2023-04-29T00:40:03;3.20;;;2.40;;
20609;SDS011;10463;52.378;9.688;2023-04-29T00:42:51;3.23;;;2.93;;
20609;SDS011;10463;52.378;9.688;2023-04-29T00:45:36;4.13;;;3.10;;
20609;SDS011;10463;52.378;9.688;2023-04-29T00:48:20;2.97;;;2.67;;
20609;SDS011;10463;52.378;9.688;2023-04-29T00:51:05;3.60;;;3.00;;
20609;SDS011;10463;52.378;9.688;2023-04-29T00:53:50;3.17;;;2.60;;
20609;SDS011;10463;52.378;9.688;2023-04-29T00:56:36;2.83;;;2.40;;
20609;SDS011;10463;52.378;9.688;2023-04-29T00:59:24;2.80;;;2.23;;
20609;SDS011;10463;52.378;9.688;2023-04-29T01:02:15;3.30;;;3.00;;
20609;SDS011;10463;52.378;9.688;2023-04-29T01:05:00;2.80;;;2.50;;
20609;SDS011;10463;52.378;9.688;2023-04-29T01:07:51;3.40;;;2.80;;
20609;SDS011;10463;52.378;9.688;2023-04-29T01:10:53;3.37;;;2.80;;
20609;SDS011;10463;52.378;9.688;2023-04-29T01:13:49;3.13;;;2.60;;
20609;SDS011;10463;52.378;9.688;2023-04-29T01:16:41;3.10;;;2.37;;
20609;SDS011;10463;52.378;9.688;2023-04-29T01:19:38;2.80;;;2.40;;
20609;SDS011;10463;52.378;9.688;2023-04-29T01:22:29;3.60;;;2.80;;
20609;SDS011;10463;52.378;9.688;2023-04-29T01:25:15;3.47;;;2.60;;
20609;SDS011;10463;52.378;9.688;2023-04-29T01:28:32;3.17;;;2.40;;
20609;SDS011;10463;52.378;9.688;2023-04-29T01:31:29;2.47;;;2.10;;
20609;SDS011;10463;52.378;9.688;2023-04-29T01:34:24;2.60;;;2.00;;
20609;SDS011;10463;52.378;9.688;2023-04-29T01:37:17;2.73;;;2.10;;
20609;SDS011;10463;52.378;9.688;2023-04-29T01:40:11;2.87;;;2.50;;
20609;SDS011;10463;52.378;9.688;2023-04-29T01:43:11;3.10;;;2.63;;
20609;SDS011;10463;52.378;9.688;2023-04-29T01:46:03;3.27;;;2.40;;
20609;SDS011;10463;52.378;9.688;2023-04-29T01:48:51;3.30;;;2.50;;
20609;SDS011;10463;52.378;9.688;2023-04-29T01:51:37;3.13;;;2.60;;
20609;SDS011;10463;52.378;9.688;2023-04-29T01:54:22;2.60;;;2.20;;
20609;SDS011;10463;52.378;9.688;2023-04-29T01:57:08;3.27;;;2.43;;
20609;SDS011;10463;52.378;9.688;2023-04-29T02:00:06;2.40;;;1.97;;
20609;SDS011;10463;52.378;9.688;2023-04-29T02:02:57;2.67;;;2.13;;
20609;SDS011;10463;52.378;9.688;2023-04-29T02:05:52;2.30;;;1.80;;
20609;SDS011;10463;52.378;9.688;2023-04-29T02:08:37;3.00;;;2.53;;
20609;SDS011;10463;52.378;9.688;2023-04-29T02:11:21;2.10;;;1.80;;
20609;SDS011;10463;52.378;9.688;2023-04-29T02:14:06;3.17;;;2.03;;
20609;SDS011;10463;52.378;9.688;2023-04-29T02:16:52;2.80;;;2.27;;
20609;SDS011;10463;52.378;9.688;2023-04-29T02:19:37;2.33;;;1.73;;
20609;SDS011;10463;52.378;9.688;2023-04-29T02:22:22;1.87;;;1.50;;
20609;SDS011;10463;52.378;9.688;2023-04-29T02:25:08;3.23;;;2.60;;
20609;SDS011;10463;52.378;9.688;2023-04-29T02:27:54;2.50;;;1.90;;
20609;SDS011;10463;52.378;9.688;2023-04-29T02:30:39;2.40;;;1.90;;
20609;SDS011;10463;52.378;9.688;2023-04-29T02:33:25;2.40;;;1.57;;
20609;SDS011;10463;52.378;9.688;2023-04-29T02:36:09;2.40;;;2.00;;
20609;SDS011;10463;52.378;9.688;2023-04-29T02:38:54;2.40;;;1.73;;
20609;SDS011;10463;52.378;9.688;2023-04-29T02:41:39;2.13;;;1.93;;
20609;SDS011;10463;52.378;9.688;2023-04-29T02:44:25;2.37;;;2.10;;
20609;SDS011;10463;52.378;9.688;2023-04-29T02:47:10;2.30;;;1.70;;
20609;SDS011;10463;52.378;9.688;2023-04-29T02:49:57;2.30;;;1.80;;
20609;SDS011;10463;52.378;9.688;2023-04-29T02:52:42;2.40;;;1.90;;
20609;SDS011;10463;52.378;9.688;2023-04-29T02:55:27;2.10;;;1.57;;
20609;SDS011;10463;52.378;9.688;2023-04-29T02:58:16;2.57;;;2.03;;
20609;SDS011;10463;52.378;9.688;2023-04-29T03:01:01;2.13;;;1.70;;
20609;SDS011;10463;52.378;9.688;2023-04-29T03:03:46;1.90;;;1.50;;
20609;SDS011;10463;52.378;9.688;2023-04-29T03:06:34;1.90;;;1.70;;
20609;SDS011;10463;52.378;9.688;2023-04-29T03:09:19;2.13;;;1.80;;
20609;SDS011;10463;52.378;9.688;2023-04-29T03:12:05;1.97;;;1.67;;
20609;SDS011;10463;52.378;9.688;2023-04-29T03:14:50;2.10;;;1.57;;
20609;SDS011;10463;52.378;9.688;2023-04-29T03:17:35;2.83;;;1.50;;
20609;SDS011;10463;52.378;9.688;2023-04-29T03:20:20;2.40;;;1.83;;
20609;SDS011;10463;52.378;9.688;2023-04-29T03:23:06;2.13;;;1.60;;
20609;SDS011;10463;52.378;9.688;2023-04-29T03:25:51;1.93;;;1.63;;
20609;SDS011;10463;52.378;9.688;2023-04-29T03:28:36;1.93;;;1.50;;
20609;SDS011;10463;52.378;9.688;2023-04-29T03:31:20;2.80;;;2.10;;
20609;SDS011;10463;52.378;9.688;2023-04-29T03:34:06;2.07;;;1.53;;
20609;SDS011;10463;52.378;9.688;2023-04-29T03:36:55;2.00;;;1.60;;
20609;SDS011;10463;52.378;9.688;2023-04-29T03:39:42;3.30;;;1.63;;
20609;SDS011;10463;52.378;9.688;2023-04-29T03:42:26;1.57;;;1.40;;
20609;SDS011;10463;52.378;9.688;2023-04-29T03:45:11;2.30;;;1.80;;
20609;SDS011;10463;52.378;9.688;2023-04-29T03:47:57;2.00;;;1.40;;
20609;SDS011;10463;52.378;9.688;2023-04-29T03:50:42;1.90;;;1.50;;
20609;SDS011;10463;52.378;9.688;2023-04-29T03:53:27;2.20;;;1.60;;
20609;SDS011;10463;52.378;9.688;2023-04-29T03:56:13;2.10;;;1.50;;
20609;SDS011;10463;52.378;9.688;2023-04-29T03:58:59;2.07;;;1.47;;
20609;SDS011;10463;52.378;9.688;2023-04-29T04:01:44;2.13;;;1.50;;
20609;SDS011;10463;52.378;9.688;2023-04-29T04:04:28;2.03;;;1.30;;
20609;SDS011;10463;52.378;9.688;2023-04-29T04:07:13;2.77;;;1.73;;
20609;SDS011;10463;52.378;9.688;2023-04-29T04:10:20;1.97;;;1.70;;
20609;SDS011;10463;52.378;9.688;2023-04-29T04:13:06;1.90;;;1.50;;
20609;SDS011;10463;52.378;9.688;2023-04-29T04:15:51;2.20;;;1.40;;
20609;SDS011;10463;52.378;9.688;2023-04-29T04:18:36;2.33;;;1.67;;
20609;SDS011;10463;52.378;9.688;2023-04-29T04:21:22;2.00;;;1.50;;
20609;SDS011;10463;52.378;9.688;2023-04-29T04:24:17;2.70;;;1.83;;
20609;SDS011;10463;52.378;9.688;2023-04-29T04:27:01;2.13;;;1.40;;
20609;SDS011;10463;52.378;9.688;2023-04-29T04:29:53;2.27;;;1.83;;
20609;SDS011;10463;52.378;9.688;2023-04-29T04:32:43;2.03;;;1.70;;
20609;SDS011;10463;52.378;9.688;2023-04-29T04:35:28;2.23;;;1.63;;
20609;SDS011;10463;52.378;9.688;2023-04-29T04:38:13;2.37;;;1.80;;
20609;SDS011;10463;52.378;9.688;2023-04-29T04:40:58;2.27;;;2.03;;
20609;SDS011;10463;52.378;9.688;2023-04-29T04:43:52;2.10;;;1.40;;
20609;SDS011;10463;52.378;9.688;2023-04-29T04:46:49;2.50;;;1.60;;
20609;SDS011;10463;52.378;9.688;2023-04-29T04:49:47;2.03;;;1.67;;
20609;SDS011;10463;52.378;9.688;2023-04-29T04:52:36;2.30;;;1.93;;
20609;SDS011;10463;52.378;9.688;2023-04-29T04:55:33;2.13;;;1.57;;
20609;SDS011;10463;52.378;9.688;2023-04-29T04:58:18;2.40;;;2.07;;
20609;SDS011;10463;52.378;9.688;2023-04-29T05:01:03;1.90;;;1.50;;
20609;SDS011;10463;52.378;9.688;2023-04-29T05:03:50;2.30;;;1.60;;
20609;SDS011;10463;52.378;9.688;2023-04-29T05:06:35;2.27;;;1.83;;
20609;SDS011;10463;52.378;9.688;2023-04-29T05:09:20;1.80;;;1.60;;
20609;SDS011;10463;52.378;9.688;2023-04-29T05:12:05;2.63;;;1.90;;
20609;SDS011;10463;52.378;9.688;2023-04-29T05:14:51;2.43;;;2.07;;
20609;SDS011;10463;52.378;9.688;2023-04-29T05:17:37;1.90;;;1.57;;
20609;SDS011;10463;52.378;9.688;2023-04-29T05:20:23;2.00;;;1.50;;
20609;SDS011;10463;52.378;9.688;2023-04-29T05:23:08;2.30;;;1.70;;
20609;SDS011;10463;52.378;9.688;2023-04-29T05:25:56;3.03;;;2.30;;
20609;SDS011;10463;52.378;9.688;2023-04-29T05:28:43;1.70;;;1.57;;
20609;SDS011;10463;52.378;9.688;2023-04-29T05:31:28;3.67;;;2.50;;
20609;SDS011;10463;52.378;9.688;2023-04-29T05:34:14;2.63;;;2.17;;
20609;SDS011;10463;52.378;9.688;2023-04-29T05:37:01;2.30;;;1.90;;
20609;SDS011;10463;52.378;9.688;2023-04-29T05:39:46;1.90;;;1.50;;
20609;SDS011;10463;52.378;9.688;2023-04-29T05:42:34;2.47;;;2.07;;
20609;SDS011;10463;52.378;9.688;2023-04-29T05:45:19;2.60;;;2.07;;
20609;SDS011;10463;52.378;9.688;2023-04-29T05:48:06;2.20;;;2.00;;
20609;SDS011;10463;52.378;9.688;2023-04-29T05:50:51;2.10;;;1.87;;
20609;SDS011;10463;52.378;9.688;2023-04-29T05:53:39;2.00;;;1.50;;
20609;SDS011;10463;52.378;9.688;2023-04-29T05:56:24;2.63;;;2.20;;
20609;SDS011;10463;52.378;9.688;2023-04-29T05:59:08;2.43;;;2.07;;
20609;SDS011;10463;52.378;9.688;2023-04-29T06:01:54;1.80;;;1.50;;
20609;SDS011;10463;52.378;9.688;2023-04-29T06:04:40;2.20;;;2.00;;
20609;SDS011;10463;52.378;9.688;2023-04-29T06:07:44;2.30;;;1.83;;
20609;SDS011;10463;52.378;9.688;2023-04-29T06:10:50;2.10;;;1.80;;
20609;SDS011;10463;52.378;9.688;2023-04-29T06:13:37;2.43;;;2.20;;
20609;SDS011;10463;52.378;9.688;2023-04-29T06:16:22;3.20;;;2.13;;
20609;SDS011;10463;52.378;9.688;2023-04-29T06:19:07;2.17;;;1.83;;
20609;SDS011;10463;52.378;9.688;2023-04-29T06:21:52;2.00;;;1.77;;
20609;SDS011;10463;52.378;9.688;2023-04-29T06:24:37;2.10;;;1.87;;
20609;SDS011;10463;52.378;9.688;2023-04-29T06:27:23;2.23;;;1.80;;
20609;SDS011;10463;52.378;9.688;2023-04-29T06:30:09;2.00;;;1.80;;
20609;SDS011;10463;52.378;9.688;2023-04-29T06:32:55;2.43;;;1.83;;
20609;SDS011;10463;52.378;9.688;2023-04-29T06:35:41;2.33;;;1.90;;
20609;SDS011;10463;52.378;9.688;2023-04-29T06:38:52;2.30;;;1.90;;
20609;SDS011;10463;52.378;9.688;2023-04-29T06:41:49;2.40;;;2.10;;
20609;SDS011;10463;52.378;9.688;2023-04-29T06:44:58;2.20;;;2.00;;
20609;SDS011;10463;52.378;9.688;2023-04-29T06:47:56;2.40;;;2.20;;
20609;SDS011;10463;52.378;9.688;2023-04-29T06:51:03;3.07;;;2.77;;
20609;SDS011;10463;52.378;9.688;2023-04-29T06:53:50;2.40;;;2.10;;
20609;SDS011;10463;52.378;9.688;2023-04-29T06:56:37;3.20;;;2.60;;
20609;SDS011;10463;52.378;9.688;2023-04-29T06:59:21;2.90;;;2.30;;
20609;SDS011;10463;52.378;9.688;2023-04-29T07:02:08;3.27;;;2.87;;
20609;SDS011;10463;52.378;9.688;2023-04-29T07:04:53;3.30;;;2.80;;
20609;SDS011;10463;52.378;9.688;2023-04-29T07:07:38;3.50;;;2.67;;
20609;SDS011;10463;52.378;9.688;2023-04-29T07:10:22;3.30;;;3.00;;
20609;SDS011;10463;52.378;9.688;2023-04-29T07:13:11;3.43;;;3.07;;
20609;SDS011;10463;52.378;9.688;2023-04-29T07:15:56;3.73;;;3.37;;
20609;SDS011;10463;52.378;9.688;2023-04-29T07:18:42;4.80;;;3.60;;
20609;SDS011;10463;52.378;9.688;2023-04-29T07:21:26;3.93;;;3.50;;
20609;SDS011;10463;52.378;9.688;2023-04-29T07:24:11;3.43;;;2.90;;
20609;SDS011;10463;52.378;9.688;2023-04-29T07:26:56;4.60;;;3.70;;
20609;SDS011;10463;52.378;9.688;2023-04-29T07:29:41;3.60;;;3.20;;
20609;SDS011;10463;52.378;9.688;2023-04-29T07:32:25;5.10;;;3.60;;
20609;SDS011;10463;52.378;9.688;2023-04-29T07:35:12;3.90;;;3.33;;
20609;SDS011;10463;52.378;9.688;2023-04-29T07:37:57;4.03;;;3.63;;
20609;SDS011;10463;52.378;9.688;2023-04-29T07:40:42;3.63;;;2.93;;
20609;SDS011;10463;52.378;9.688;2023-04-29T07:43:27;4.20;;;3.60;;
20609;SDS011;10463;52.378;9.688;2023-04-29T07:46:12;3.90;;;3.30;;
20609;SDS011;10463;52.378;9.688;2023-04-29T07:48:57;4.20;;;3.10;;
20609;SDS011;10463;52.378;9.688;2023-04-29T07:51:43;3.73;;;3.37;;
20609;SDS011;10463;52.378;9.688;2023-04-29T07:54:28;3.97;;;3.57;;
20609;SDS011;10463;52.378;9.688;2023-04-29T07:57:13;3.67;;;3.37;;
20609;SDS011;10463;52.378;9.688;2023-04-29T07:59:58;3.80;;;3.43;;
20609;SDS011;10463;52.378;9.688;2023-04-29T08:02:43;4.80;;;3.50;;
20609;SDS011;10463;52.378;9.688;2023-04-29T08:05:30;4.80;;;3.70;;
20609;SDS011;10463;52.378;9.688;2023-04-29T08:08:17;3.83;;;3.53;;
20609;SDS011;10463;52.378;9.688;2023-04-29T08:11:01;3.43;;;3.13;;
20609;SDS011;10463;52.378;9.688;2023-04-29T08:13:47;4.23;;;3.80;;
20609;SDS011;10463;52.378;9.688;2023-04-29T08:16:32;4.70;;;4.30;;
20609;SDS011;10463;52.378;9.688;2023-04-29T08:19:17;4.13;;;3.70;;
20609;SDS011;10463;52.378;9.688;2023-04-29T08:22:02;4.87;;;4.10;;
20609;SDS011;10463;52.378;9.688;2023-04-29T08:24:48;4.40;;;4.00;;
20609;SDS011;10463;52.378;9.688;2023-04-29T08:27:34;4.70;;;4.20;;
20609;SDS011;10463;52.378;9.688;2023-04-29T08:30:19;4.77;;;4.00;;
20609;SDS011;10463;52.378;9.688;2023-04-29T08:33:04;5.97;;;4.27;;
20609;SDS011;10463;52.378;9.688;2023-04-29T08:35:48;4.30;;;3.63;;
20609;SDS011;10463;52.378;9.688;2023-04-29T08:38:41;3.83;;;3.40;;
20609;SDS011;10463;52.378;9.688;2023-04-29T08:41:27;4.13;;;3.63;;
20609;SDS011;10463;52.378;9.688;2023-04-29T08:44:14;4.00;;;3.60;;
20609;SDS011;10463;52.378;9.688;2023-04-29T08:47:00;3.87;;;3.40;;
20609;SDS011;10463;52.378;9.688;2023-04-29T08:49:46;3.80;;;3.40;;
20609;SDS011;10463;52.378;9.688;2023-04-29T08:52:31;4.57;;;4.07;;
20609;SDS011;10463;52.378;9.688;2023-04-29T08:55:16;3.97;;;3.47;;
20609;SDS011;10463;52.378;9.688;2023-04-29T08:58:03;3.50;;;3.20;;
20609;SDS011;10463;52.378;9.688;2023-04-29T09:00:48;3.87;;;3.30;;
20609;SDS011;10463;52.378;9.688;2023-04-29T09:03:42;3.43;;;3.03;;
20609;SDS011;10463;52.378;9.688;2023-04-29T09:06:32;3.60;;;3.00;;
20609;SDS011;10463;52.378;9.688;2023-04-29T09:09:18;3.60;;;3.17;;
20609;SDS011;10463;52.378;9.688;2023-04-29T09:12:04;4.53;;;3.83;;
20609;SDS011;10463;52.378;9.688;2023-04-29T09:14:50;3.87;;;3.50;;
20609;SDS011;10463;52.378;9.688;2023-04-29T09:17:39;3.90;;;3.50;;
20609;SDS011;10463;52.378;9.688;2023-04-29T09:20:27;3.53;;;3.00;;
20609;SDS011;10463;52.378;9.688;2023-04-29T09:23:13;4.50;;;3.80;;
20609;SDS011;10463;52.378;9.688;2023-04-29T09:25:57;4.03;;;3.30;;
20609;SDS011;10463;52.378;9.688;2023-04-29T09:28:42;3.90;;;3.40;;
20609;SDS011;10463;52.378;9.688;2023-04-29T09:31:29;4.73;;;3.83;;
20609;SDS011;10463;52.378;9.688;2023-04-29T09:34:14;4.27;;;3.87;;
20609;SDS011;10463;52.378;9.688;2023-04-29T09:36:59;3.83;;;3.23;;
20609;SDS011;10463;52.378;9.688;2023-04-29T09:39:44;4.97;;;3.67;;
20609;SDS011;10463;52.378;9.688;2023-04-29T09:42:28;5.43;;;4.30;;
20609;SDS011;10463;52.378;9.688;2023-04-29T09:45:34;4.30;;;3.67;;
20609;SDS011;10463;52.378;9.688;2023-04-29T09:48:22;4.03;;;3.43;;
20609;SDS011;10463;52.378;9.688;2023-04-29T09:51:15;4.53;;;4.13;;
20609;SDS011;10463;52.378;9.688;2023-04-29T09:54:00;5.50;;;4.63;;
20609;SDS011;10463;52.378;9.688;2023-04-29T09:57:04;4.70;;;3.90;;
20609;SDS011;10463;52.378;9.688;2023-04-29T09:59:50;3.97;;;3.60;;
20609;SDS011;10463;52.378;9.688;2023-04-29T10:02:35;3.63;;;3.23;;
20609;SDS011;10463;52.378;9.688;2023-04-29T10:05:26;4.27;;;3.70;;
20609;SDS011;10463;52.378;9.688;2023-04-29T10:08:15;3.93;;;3.60;;
20609;SDS011;10463;52.378;9.688;2023-04-29T10:14:02;3.90;;;3.30;;
20609;SDS011;10463;52.378;9.688;2023-04-29T10:16:49;4.60;;;4.03;;
20609;SDS011;10463;52.378;9.688;2023-04-29T10:19:38;3.73;;;3.13;;
20609;SDS011;10463;52.378;9.688;2023-04-29T10:22:39;3.83;;;3.30;;
20609;SDS011;10463;52.378;9.688;2023-04-29T10:25:30;4.27;;;3.80;;
20609;SDS011;10463;52.378;9.688;2023-04-29T10:28:19;4.27;;;3.87;;
20609;SDS011;10463;52.378;9.688;2023-04-29T10:31:06;4.17;;;3.70;;
20609;SDS011;10463;52.378;9.688;2023-04-29T10:33:54;4.00;;;3.60;;
20609;SDS011;10463;52.378;9.688;2023-04-29T10:36:45;4.50;;;4.00;;
20609;SDS011;10463;52.378;9.688;2023-04-29T10:39:38;4.73;;;4.20;;
20609;SDS011;10463;52.378;9.688;2023-04-29T10:42:35;7.60;;;4.03;;
20609;SDS011;10463;52.378;9.688;2023-04-29T10:45:29;5.60;;;3.73;;
20609;SDS011;10463;52.378;9.688;2023-04-29T10:48:15;5.63;;;4.23;;
20609;SDS011;10463;52.378;9.688;2023-04-29T10:51:02;4.30;;;3.60;;
20609;SDS011;10463;52.378;9.688;2023-04-29T10:54:01;4.77;;;4.27;;
20609;SDS011;10463;52.378;9.688;2023-04-29T10:56:52;4.40;;;3.90;;
20609;SDS011;10463;52.378;9.688;2023-04-29T10:59:44;5.57;;;4.90;;
20609;SDS011;10463;52.378;9.688;2023-04-29T11:02:29;5.03;;;4.40;;
20609;SDS011;10463;52.378;9.688;2023-04-29T11:05:14;4.70;;;3.60;;
20609;SDS011;10463;52.378;9.688;2023-04-29T11:08:10;5.03;;;4.53;;
20609;SDS011;10463;52.378;9.688;2023-04-29T11:10:59;5.23;;;4.73;;
20609;SDS011;10463;52.378;9.688;2023-04-29T11:13:46;4.80;;;4.20;;
20609;SDS011;10463;52.378;9.688;2023-04-29T11:16:31;5.20;;;4.67;;
20609;SDS011;10463;52.378;9.688;2023-04-29T11:19:20;5.00;;;4.37;;
20609;SDS011;10463;52.378;9.688;2023-04-29T11:22:13;5.03;;;4.10;;
20609;SDS011;10463;52.378;9.688;2023-04-29T11:25:09;4.20;;;3.80;;
20609;SDS011;10463;52.378;9.688;2023-04-29T11:27:54;4.07;;;3.67;;
20609;SDS011;10463;52.378;9.688;2023-04-29T11:30:43;3.90;;;3.47;;
20609;SDS011;10463;52.378;9.688;2023-04-29T11:33:31;4.27;;;3.87;;
20609;SDS011;10463;52.378;9.688;2023-04-29T11:36:16;4.17;;;3.77;;
20609;SDS011;10463;52.378;9.688;2023-04-29T11:39:02;5.30;;;3.97;;
20609;SDS011;10463;52.378;9.688;2023-04-29T11:41:48;4.27;;;3.33;;
20609;SDS011;10463;52.378;9.688;2023-04-29T11:44:33;4.00;;;3.40;;
20609;SDS011;10463;52.378;9.688;2023-04-29T11:47:20;3.30;;;3.00;;
20609;SDS011;10463;52.378;9.688;2023-04-29T11:50:09;4.10;;;3.30;;
20609;SDS011;10463;52.378;9.688;2023-04-29T11:52:54;3.27;;;2.97;;
20609;SDS011;10463;52.378;9.688;2023-04-29T11:55:41;3.57;;;3.23;;
20609;SDS011;10463;52.378;9.688;2023-04-29T11:58:27;3.33;;;2.90;;
20609;SDS011;10463;52.378;9.688;2023-04-29T12:01:12;4.43;;;3.60;;
20609;SDS011;10463;52.378;9.688;2023-04-29T12:03:58;3.40;;;3.10;;
20609;SDS011;10463;52.378;9.688;2023-04-29T12:06:43;3.63;;;3.30;;
20609;SDS011;10463;52.378;9.688;2023-04-29T12:09:28;3.20;;;2.83;;
20609;SDS011;10463;52.378;9.688;2023-04-29T12:12:13;3.30;;;2.67;;
20609;SDS011;10463;52.378;9.688;2023-04-29T12:14:59;2.70;;;2.20;;
20609;SDS011;10463;52.378;9.688;2023-04-29T12:17:46;3.70;;;3.30;;
20609;SDS011;10463;52.378;9.688;2023-04-29T12:20:32;2.73;;;2.50;;
20609;SDS011;10463;52.378;9.688;2023-04-29T12:23:21;4.30;;;3.40;;
20609;SDS011;10463;52.378;9.688;2023-04-29T12:26:06;2.63;;;2.43;;
20609;SDS011;10463;52.378;9.688;2023-04-29T12:28:53;3.20;;;2.90;;
20609;SDS011;10463;52.378;9.688;2023-04-29T12:31:38;3.57;;;3.07;;
20609;SDS011;10463;52.378;9.688;2023-04-29T12:34:26;3.30;;;2.70;;
20609;SDS011;10463;52.378;9.688;2023-04-29T12:37:14;2.93;;;2.50;;
20609;SDS011;10463;52.378;9.688;2023-04-29T12:40:00;3.17;;;2.73;;
20609;SDS011;10463;52.378;9.688;2023-04-29T12:42:45;3.30;;;2.90;;
20609;SDS011;10463;52.378;9.688;2023-04-29T12:45:30;2.93;;;2.27;;
20609;SDS011;10463;52.378;9.688;2023-04-29T12:48:17;2.80;;;2.40;;
20609;SDS011;10463;52.378;9.688;2023-04-29T12:51:02;5.20;;;2.53;;
20609;SDS011;10463;52.378;9.688;2023-04-29T12:53:49;3.00;;;2.70;;
20609;SDS011;10463;52.378;9.688;2023-04-29T12:56:34;3.67;;;3.30;;
20609;SDS011;10463;52.378;9.688;2023-04-29T12:59:20;3.63;;;2.90;;
20609;SDS011;10463;52.378;9.688;2023-04-29T13:02:06;2.43;;;2.23;;
20609;SDS011;10463;52.378;9.688;2023-04-29T13:04:50;3.03;;;2.50;;
20609;SDS011;10463;52.378;9.688;2023-04-29T13:07:35;3.50;;;2.80;;
20609;SDS011;10463;52.378;9.688;2023-04-29T13:10:21;3.70;;;3.23;;
20609;SDS011;10463;52.378;9.688;2023-04-29T13:13:06;2.60;;;2.03;;
20609;SDS011;10463;52.378;9.688;2023-04-29T13:15:53;3.00;;;2.70;;
20609;SDS011;10463;52.378;9.688;2023-04-29T13:18:37;4.20;;;2.77;;
20609;SDS011;10463;52.378;9.688;2023-04-29T13:21:22;4.00;;;2.90;;
20609;SDS011;10463;52.378;9.688;2023-04-29T13:24:07;2.97;;;2.67;;
20609;SDS011;10463;52.378;9.688;2023-04-29T13:26:54;2.53;;;2.33;;
20609;SDS011;10463;52.378;9.688;2023-04-29T13:29:39;3.00;;;2.70;;
20609;SDS011;10463;52.378;9.688;2023-04-29T13:32:24;2.90;;;2.40;;
20609;SDS011;10463;52.378;9.688;2023-04-29T13:35:09;2.40;;;2.20;;
20609;SDS011;10463;52.378;9.688;2023-04-29T13:37:55;2.97;;;2.67;;
20609;SDS011;10463;52.378;9.688;2023-04-29T13:40:40;2.73;;;2.27;;
20609;SDS011;10463;52.378;9.688;2023-04-29T13:43:26;2.87;;;2.33;;
20609;SDS011;10463;52.378;9.688;2023-04-29T13:46:11;2.60;;;1.90;;
20609;SDS011;10463;52.378;9.688;2023-04-29T13:48:55;2.53;;;2.20;;
20609;SDS011;10463;52.378;9.688;2023-04-29T13:51:40;2.80;;;2.40;;
20609;SDS011;10463;52.378;9.688;2023-04-29T13:54:24;3.10;;;2.57;;
20609;SDS011;10463;52.378;9.688;2023-04-29T13:57:10;2.77;;;2.30;;
20609;SDS011;10463;52.378;9.688;2023-04-29T13:59:56;3.77;;;2.90;;
20609;SDS011;10463;52.378;9.688;2023-04-29T14:02:41;2.87;;;2.27;;
20609;SDS011;10463;52.378;9.688;2023-04-29T14:05:26;2.40;;;2.03;;
20609;SDS011;10463;52.378;9.688;2023-04-29T14:08:12;2.20;;;1.93;;
20609;SDS011;10463;52.378;9.688;2023-04-29T14:10:57;2.27;;;1.87;;
20609;SDS011;10463;52.378;9.688;2023-04-29T14:13:41;2.60;;;2.20;;
20609;SDS011;10463;52.378;9.688;2023-04-29T14:16:29;3.33;;;2.37;;
20609;SDS011;10463;52.378;9.688;2023-04-29T14:19:14;2.70;;;2.27;;
20609;SDS011;10463;52.378;9.688;2023-04-29T14:21:58;3.00;;;2.40;;
20609;SDS011;10463;52.378;9.688;2023-04-29T14:24:43;3.00;;;2.60;;
20609;SDS011;10463;52.378;9.688;2023-04-29T14:27:27;3.47;;;2.47;;
20609;SDS011;10463;52.378;9.688;2023-04-29T14:30:12;3.10;;;2.50;;
20609;SDS011;10463;52.378;9.688;2023-04-29T14:32:58;3.10;;;2.60;;
20609;SDS011;10463;52.378;9.688;2023-04-29T14:35:43;3.53;;;3.00;;
20609;SDS011;10463;52.378;9.688;2023-04-29T14:38:29;3.07;;;2.67;;
20609;SDS011;10463;52.378;9.688;2023-04-29T14:41:13;3.07;;;2.50;;
20609;SDS011;10463;52.378;9.688;2023-04-29T14:43:59;3.40;;;2.60;;
20609;SDS011;10463;52.378;9.688;2023-04-29T14:46:44;3.10;;;2.50;;
20609;SDS011;10463;52.378;9.688;2023-04-29T14:49:30;3.20;;;2.80;;
20609;SDS011;10463;52.378;9.688;2023-04-29T14:52:14;3.63;;;2.50;;
20609;SDS011;10463;52.378;9.688;2023-04-29T14:54:59;3.10;;;2.47;;
20609;SDS011;10463;52.378;9.688;2023-04-29T14:57:44;2.27;;;1.73;;
20609;SDS011;10463;52.378;9.688;2023-04-29T15:00:28;2.93;;;2.43;;
20609;SDS011;10463;52.378;9.688;2023-04-29T15:03:13;2.40;;;2.10;;
20609;SDS011;10463;52.378;9.688;2023-04-29T15:06:00;3.03;;;2.10;;
20609;SDS011;10463;52.378;9.688;2023-04-29T15:08:46;3.50;;;1.97;;
20609;SDS011;10463;52.378;9.688;2023-04-29T15:11:31;2.10;;;1.80;;
20609;SDS011;10463;52.378;9.688;2023-04-29T15:14:16;2.50;;;2.00;;
20609;SDS011;10463;52.378;9.688;2023-04-29T15:17:01;3.83;;;2.23;;
20609;SDS011;10463;52.378;9.688;2023-04-29T15:19:46;2.67;;;1.97;;
20609;SDS011;10463;52.378;9.688;2023-04-29T15:22:32;2.80;;;2.03;;
20609;SDS011;10463;52.378;9.688;2023-04-29T15:25:16;2.33;;;2.07;;
20609;SDS011;10463;52.378;9.688;2023-04-29T15:28:01;3.20;;;2.20;;
20609;SDS011;10463;52.378;9.688;2023-04-29T15:30:47;2.17;;;1.93;;
20609;SDS011;10463;52.378;9.688;2023-04-29T15:33:31;2.20;;;1.80;;
20609;SDS011;10463;52.378;9.688;2023-04-29T15:36:17;2.30;;;1.90;;
20609;SDS011;10463;52.378;9.688;2023-04-29T15:39:03;3.00;;;2.70;;
20609;SDS011;10463;52.378;9.688;2023-04-29T15:41:48;3.13;;;2.27;;
20609;SDS011;10463;52.378;9.688;2023-04-29T15:44:33;3.57;;;2.90;;
20609;SDS011;10463;52.378;9.688;2023-04-29T15:47:17;3.20;;;2.70;;
20609;SDS011;10463;52.378;9.688;2023-04-29T15:50:03;4.50;;;3.07;;
20609;SDS011;10463;52.378;9.688;2023-04-29T15:52:48;3.03;;;2.60;;
20609;SDS011;10463;52.378;9.688;2023-04-29T15:55:39;3.10;;;2.80;;
20609;SDS011;10463;52.378;9.688;2023-04-29T15:58:24;2.93;;;2.53;;
20609;SDS011;10463;52.378;9.688;2023-04-29T16:01:09;3.60;;;2.80;;
20609;SDS011;10463;52.378;9.688;2023-04-29T16:03:54;3.37;;;2.53;;
20609;SDS011;10463;52.378;9.688;2023-04-29T16:06:38;3.27;;;2.67;;
20609;SDS011;10463;52.378;9.688;2023-04-29T16:09:24;3.17;;;2.20;;
20609;SDS011;10463;52.378;9.688;2023-04-29T16:12:10;2.50;;;2.20;;
20609;SDS011;10463;52.378;9.688;2023-04-29T16:14:56;3.10;;;2.73;;
20609;SDS011;10463;52.378;9.688;2023-04-29T16:17:41;3.37;;;2.60;;
20609;SDS011;10463;52.378;9.688;2023-04-29T16:20:25;2.83;;;2.47;;
20609;SDS011;10463;52.378;9.688;2023-04-29T16:23:10;3.20;;;2.30;;
20609;SDS011;10463;52.378;9.688;2023-04-29T16:25:56;3.20;;;2.57;;
20609;SDS011;10463;52.378;9.688;2023-04-29T16:28:42;4.73;;;3.10;;
20609;SDS011;10463;52.378;9.688;2023-04-29T16:31:27;3.63;;;2.40;;
20609;SDS011;10463;52.378;9.688;2023-04-29T16:34:12;3.03;;;2.60;;
20609;SDS011;10463;52.378;9.688;2023-04-29T16:36:56;2.83;;;2.20;;
20609;SDS011;10463;52.378;9.688;2023-04-29T16:39:41;3.10;;;2.60;;
20609;SDS011;10463;52.378;9.688;2023-04-29T16:42:26;3.67;;;2.73;;
20609;SDS011;10463;52.378;9.688;2023-04-29T16:45:12;2.83;;;2.43;;
20609;SDS011;10463;52.378;9.688;2023-04-29T16:47:57;3.20;;;2.50;;
20609;SDS011;10463;52.378;9.688;2023-04-29T16:50:42;2.90;;;2.50;;